Time;durP1;ratioP1;P1;durP2;ratioP2;P2;SDS_P1;SDS_P2;PMS_P1;PMS_P2;Temp;Humidity;BMP_temperature;BMP_pressure;BME280_temperature;BME280_humidity;BME280_pressure;Samples;Min_cycle;Max_cycle;Signal;HPM_P1;HPM_P2
2022/06/13 00:01:02;;;;;;;9.87;4.43;;;13.10;99.90;;;;;;5057530;28;20219;-44
2022/06/13 00:03:30;;;;;;;12.33;4.67;;;13.80;99.90;;;;;;5042381;28;20195;-46
2022/06/13 00:05:57;;;;;;;8.73;4.20;;;13.10;99.90;;;;;;5046117;28;20249;-46
2022/06/13 00:08:24;;;;;;;12.10;4.57;;;13.00;99.90;;;;;;5040696;28;20253;-45
2022/06/13 00:10:51;;;;;;;13.33;4.90;;;13.00;99.90;;;;;;5047697;28;20230;-44
2022/06/13 00:13:17;;;;;;;14.97;4.13;;;12.90;99.90;;;;;;5043990;28;20652;-46
2022/06/13 00:15:45;;;;;;;11.17;3.80;;;12.60;99.90;;;;;;5035995;28;21073;-45
2022/06/13 00:18:11;;;;;;;8.73;4.80;;;13.00;99.90;;;;;;5053599;28;20200;-48
2022/06/13 00:20:39;;;;;;;7.40;4.37;;;13.00;99.90;;;;;;5042764;28;20371;-46
2022/06/13 00:23:06;;;;;;;14.43;4.00;;;13.00;99.90;;;;;;5045907;28;20199;-44
2022/06/13 00:25:33;;;;;;;8.80;3.97;;;13.00;99.90;;;;;;5038674;28;20211;-43
2022/06/13 00:28:00;;;;;;;13.17;4.27;;;12.90;99.90;;;;;;5055689;28;20195;-44
2022/06/13 00:30:27;;;;;;;13.90;4.30;;;13.00;99.90;;;;;;5035177;28;20226;-47
2022/06/13 00:32:54;;;;;;;11.60;4.20;;;13.00;99.90;;;;;;5054211;28;20203;-45
2022/06/13 00:35:21;;;;;;;11.30;4.17;;;13.00;99.90;;;;;;5042702;28;20207;-46
2022/06/13 00:37:50;;;;;;;10.03;5.30;;;13.00;99.90;;;;;;5044769;28;20282;-45
2022/06/13 00:40:17;;;;;;;11.90;4.83;;;13.00;99.90;;;;;;5045384;28;20224;-47
2022/06/13 00:42:46;;;;;;;10.50;3.93;;;12.90;99.90;;;;;;5043573;28;20281;-43
2022/06/13 00:45:19;;;;;;;16.17;4.50;;;13.00;99.90;;;;;;5039981;28;20587;-43
2022/06/13 00:47:49;;;;;;;13.23;4.73;;;13.00;99.90;;;;;;5045388;28;20257;-44
2022/06/13 00:50:23;;;;;;;7.80;3.77;;;12.90;99.90;;;;;;5048915;28;20223;-45
2022/06/13 00:52:56;;;;;;;12.07;4.43;;;12.90;99.90;;;;;;5044529;28;20672;-45
2022/06/13 00:55:30;;;;;;;11.17;4.47;;;12.90;99.90;;;;;;5040625;28;20199;-46
2022/06/13 00:58:00;;;;;;;13.70;4.50;;;12.90;99.90;;;;;;5054473;28;20198;-45
2022/06/13 01:00:27;;;;;;;12.90;4.53;;;12.90;99.90;;;;;;5040151;28;20586;-47
2022/06/13 01:02:55;;;;;;;15.13;4.70;;;12.80;99.90;;;;;;5055884;28;20667;-44
2022/06/13 01:05:25;;;;;;;14.13;4.20;;;12.80;99.90;;;;;;5045292;28;20753;-46
2022/06/13 01:07:55;;;;;;;10.43;4.70;;;12.80;99.90;;;;;;5044385;28;20200;-44
2022/06/13 01:13:11;;;;;;;10.40;4.90;;;12.70;99.90;;;;;;5044844;28;20223;-47
2022/06/13 01:15:53;;;;;;;13.20;4.37;;;12.70;99.90;;;;;;5041998;28;20187;-44
2022/06/13 01:18:35;;;;;;;13.57;4.63;;;12.70;99.90;;;;;;5041777;28;20207;-44
2022/06/13 01:21:12;;;;;;;16.50;5.90;;;12.60;99.90;;;;;;5051240;28;20582;-45
2022/06/13 01:24:11;;;;;;;14.80;4.93;;;12.60;99.90;;;;;;5041522;28;20194;-46
2022/06/13 01:27:05;;;;;;;15.80;4.47;;;12.60;99.90;;;;;;5048309;28;20344;-47
2022/06/13 01:29:52;;;;;;;10.40;4.37;;;12.60;99.90;;;;;;5042836;28;20207;-45
2022/06/13 01:32:51;;;;;;;13.67;4.33;;;12.60;99.90;;;;;;5041558;28;20699;-44
2022/06/13 01:35:35;;;;;;;9.73;3.83;;;12.50;99.90;;;;;;5053834;28;20188;-44
2022/06/13 01:38:08;;;;;;;12.90;4.17;;;;;;;;;;5040956;28;20199;-47
2022/06/13 01:40:44;;;;;;;9.27;4.50;;;;;;;;;;5056990;28;20618;-44
2022/06/13 01:43:13;;;;;;;13.70;4.47;;;;;;;;;;5040782;28;20207;-44
2022/06/13 01:45:43;;;;;;;13.03;5.37;;;;;;;;;;5043614;28;20223;-45
2022/06/13 01:48:17;;;;;;;10.27;4.50;;;;;;;;;;5032529;28;20210;-45
2022/06/13 01:50:49;;;;;;;15.33;4.20;;;;;;;;;;5045778;28;20222;-47
2022/06/13 01:53:20;;;;;;;11.83;4.53;;;;;;;;;;5042630;28;20197;-45
2022/06/13 01:55:50;;;;;;;13.87;4.23;;;;;;;;;;5041385;28;20201;-44
2022/06/13 01:58:21;;;;;;;14.30;4.30;;;;;;;;;;5050666;28;20853;-47
2022/06/13 02:00:51;;;;;;;18.40;4.43;;;;;;;;;;5043747;28;20310;-46
2022/06/13 02:03:26;;;;;;;12.63;4.30;;;;;;;;;;5036536;28;20225;-49
2022/06/13 02:06:01;;;;;;;14.97;3.77;;;;;;;;;;5046115;28;20229;-45
2022/06/13 02:08:30;;;;;;;10.27;4.77;;;;;;;;;;5047947;28;20202;-44
2022/06/13 02:10:58;;;;;;;11.07;4.07;;;;;;;;;;5040111;28;20607;-44
2022/06/13 02:13:30;;;;;;;10.43;4.10;;;;;;;;;;5043503;28;20218;-44
2022/06/13 02:15:59;;;;;;;12.90;5.10;;;;;;;;;;5038142;28;20203;-46
2022/06/13 02:18:30;;;;;;;12.83;4.63;;;;;;;;;;5035746;28;20203;-46
2022/06/13 02:20:59;;;;;;;11.03;3.97;;;;;;;;;;5052803;28;20218;-45
2022/06/13 02:23:31;;;;;;;10.93;4.07;;;;;;;;;;5043743;28;20207;-44
2022/06/13 02:26:01;;;;;;;10.07;4.10;;;;;;;;;;5040636;28;20222;-45
2022/06/13 02:28:33;;;;;;;11.13;4.27;;;;;;;;;;5056281;28;20206;-45
2022/06/13 02:31:11;;;;;;;12.20;4.30;;;;;;;;;;5046931;28;20427;-45
2022/06/13 02:33:41;;;;;;;9.97;4.63;;;;;;;;;;5041963;28;20199;-45
2022/06/13 02:36:12;;;;;;;12.03;4.33;;;;;;;;;;5040191;28;20206;-48
2022/06/13 02:38:42;;;;;;;17.47;5.30;;;;;;;;;;5056494;28;20203;-46
2022/06/13 02:41:10;;;;;;;9.70;4.03;;;;;;;;;;5040843;28;20221;-44
2022/06/13 02:43:40;;;;;;;15.47;4.70;;;;;;;;;;5043306;28;20199;-46
2022/06/13 02:46:11;;;;;;;10.87;5.27;;;;;;;;;;5047369;28;20226;-44
2022/06/13 02:48:42;;;;;;;13.23;4.67;;;;;;;;;;5042645;28;20203;-48
2022/06/13 02:51:13;;;;;;;10.53;4.37;;;;;;;;;;5048168;28;20214;-44
2022/06/13 02:53:46;;;;;;;8.47;4.80;;;;;;;;;;5047285;28;20211;-46
2022/06/13 02:56:19;;;;;;;15.37;4.67;;;;;;;;;;5044084;28;20198;-44
2022/06/13 02:58:53;;;;;;;12.47;4.63;;;;;;;;;;5047894;28;20207;-46
2022/06/13 03:01:23;;;;;;;15.07;5.27;;;;;;;;;;5043053;28;20298;-45
2022/06/13 03:03:55;;;;;;;12.37;4.57;;;;;;;;;;5041691;28;20211;-48
2022/06/13 03:06:25;;;;;;;11.97;4.73;;;;;;;;;;5042087;28;20223;-46
2022/06/13 03:08:57;;;;;;;12.73;4.80;;;;;;;;;;5046080;28;20222;-46
2022/06/13 03:11:31;;;;;;;10.67;5.23;;;;;;;;;;5047180;28;20307;-45
2022/06/13 03:14:03;;;;;;;15.23;4.70;;;;;;;;;;5055625;28;20245;-49
2022/06/13 03:16:33;;;;;;;8.53;5.00;;;;;;;;;;5047029;28;20559;-44
2022/06/13 03:19:06;;;;;;;12.53;4.83;;;;;;;;;;5040722;28;20944;-45
2022/06/13 03:21:35;;;;;;;16.60;7.20;;;;;;;;;;5040081;28;20227;-44
2022/06/13 03:24:07;;;;;;;15.47;5.80;;;;;;;;;;5048205;28;20277;-45
2022/06/13 03:26:38;;;;;;;17.27;5.63;;;;;;;;;;5052318;28;20215;-45
2022/06/13 03:29:10;;;;;;;14.70;5.63;;;;;;;;;;5055264;28;20192;-44
2022/06/13 03:31:40;;;;;;;15.53;5.73;;;;;;;;;;5046633;28;20219;-47
2022/06/13 03:34:09;;;;;;;17.30;5.63;;;;;;;;;;5040773;28;20445;-51
2022/06/13 03:36:38;;;;;;;13.40;5.73;;;;;;;;;;5042662;28;20203;-47
2022/06/13 03:39:10;;;;;;;11.87;6.40;;;;;;;;;;5050513;28;20183;-45
2022/06/13 03:41:41;;;;;;;10.07;5.20;;;;;;;;;;5046433;28;20223;-46
2022/06/13 03:44:10;;;;;;;10.83;5.43;;;;;;;;;;5041080;28;20195;-44
2022/06/13 03:46:41;;;;;;;12.93;5.33;;;;;;;;;;5054227;28;20219;-45
2022/06/13 03:49:12;;;;;;;14.23;6.03;;;;;;;;;;5047029;28;20206;-48
2022/06/13 03:51:42;;;;;;;12.73;5.00;;;;;;;;;;5042972;28;20227;-47
2022/06/13 03:54:11;;;;;;;12.17;5.17;;;;;;;;;;5052547;28;20273;-49
2022/06/13 03:56:43;;;;;;;13.50;5.63;;;;;;;;;;5057674;28;20201;-50
2022/06/13 03:59:13;;;;;;;16.00;5.77;;;;;;;;;;5051813;28;20218;-46
2022/06/13 04:01:44;;;;;;;14.73;5.60;;;;;;;;;;5048764;28;20215;-45
2022/06/13 04:04:17;;;;;;;17.87;5.47;;;;;;;;;;5048212;28;20694;-45
2022/06/13 04:06:46;;;;;;;8.93;4.80;;;;;;;;;;5037594;28;23822;-45
2022/06/13 04:09:17;;;;;;;12.83;5.27;;;;;;;;;;5058575;28;20579;-44
2022/06/13 04:12:10;;;;;;;12.40;5.47;;;;;;;;;;5040381;28;20227;-44
2022/06/13 04:14:48;;;;;;;15.87;5.90;;;;;;;;;;5055881;28;20207;-44
2022/06/13 04:17:22;;;;;;;16.50;6.23;;;;;;;;;;5045600;28;20732;-46
2022/06/13 04:19:53;;;;;;;16.90;7.03;;;;;;;;;;5053764;28;20214;-43
2022/06/13 04:22:22;;;;;;;12.03;4.93;;;;;;;;;;5039351;28;20210;-44
2022/06/13 04:24:55;;;;;;;19.03;6.10;;;;;;;;;;5048802;28;20253;-44
2022/06/13 04:27:24;;;;;;;8.97;4.40;;;;;;;;;;5048125;28;20280;-46
2022/06/13 04:29:55;;;;;;;11.67;4.67;;;;;;;;;;5052706;28;20228;-44
2022/06/13 04:32:26;;;;;;;10.70;5.20;;;;;;;;;;5039963;28;20203;-46
2022/06/13 04:34:59;;;;;;;14.50;5.50;;;;;;;;;;5048574;28;20205;-45
2022/06/13 04:37:26;;;;;;;13.00;4.97;;;;;;;;;;5049164;28;20264;-44
2022/06/13 04:39:58;;;;;;;13.07;4.93;;;;;;;;;;5043389;28;20214;-44
2022/06/13 04:42:27;;;;;;;10.33;4.83;;;;;;;;;;5050539;28;20206;-44
2022/06/13 04:44:56;;;;;;;10.37;5.40;;;;;;;;;;5045770;28;20312;-45
2022/06/13 04:47:24;;;;;;;14.57;6.57;;;;;;;;;;5052195;28;20222;-44
2022/06/13 04:49:55;;;;;;;18.87;7.63;;;;;;;;;;5042543;28;20219;-45
2022/06/13 04:52:26;;;;;;;14.50;7.03;;;;;;;;;;5048861;28;20675;-45
2022/06/13 04:54:59;;;;;;;14.27;6.33;;;;;;;;;;5030033;28;20276;-46
2022/06/13 04:57:28;;;;;;;12.40;6.30;;;;;;;;;;5055484;28;20279;-44
2022/06/13 04:59:56;;;;;;;15.10;7.67;;;;;;;;;;5054673;28;20837;-45
2022/06/13 05:02:27;;;;;;;13.53;6.77;;;;;;;;;;5055355;28;20199;-45
2022/06/13 05:04:55;;;;;;;17.13;6.80;;;;;;;;;;5045961;28;20252;-48
2022/06/13 05:07:24;;;;;;;13.97;6.07;;;;;;;;;;5053982;28;20223;-44
2022/06/13 05:09:56;;;;;;;17.43;7.73;;;;;;;;;;5027543;28;20230;-45
2022/06/13 05:12:27;;;;;;;12.93;6.40;;;;;;;;;;5053298;28;20253;-45
2022/06/13 05:14:59;;;;;;;15.27;7.73;;;;;;;;;;5048760;28;20211;-45
2022/06/13 05:17:48;;;;;;;19.80;7.37;;;;;;;;;;5048321;28;20206;-47
2022/06/13 05:20:18;;;;;;;12.67;5.70;;;;;;;;;;5026293;28;20529;-44
2022/06/13 05:23:05;;;;;;;12.40;6.20;;;;;;;;;;5053553;28;20588;-45
2022/06/13 05:25:44;;;;;;;11.17;5.70;;;;;;;;;;5038796;28;20207;-49
2022/06/13 05:28:16;;;;;;;17.13;6.20;;;;;;;;;;5053727;28;20225;-45
2022/06/13 05:30:46;;;;;;;12.83;6.20;;;;;;;;;;5054560;28;20218;-47
2022/06/13 05:33:13;;;;;;;13.77;5.60;;;;;;;;;;5063153;28;20206;-47
2022/06/13 05:35:43;;;;;;;17.83;5.97;;;;;;;;;;5045956;28;20234;-46
2022/06/13 05:38:13;;;;;;;13.33;5.87;;;;;;;;;;5044969;28;20298;-46
2022/06/13 05:40:41;;;;;;;15.17;6.53;;;;;;;;;;5035396;28;20218;-45
2022/06/13 05:43:09;;;;;;;14.30;5.83;;;;;;;;;;5050657;28;20206;-44
2022/06/13 05:45:37;;;;;;;10.93;5.60;;;;;;;;;;5041760;28;20210;-45
2022/06/13 05:48:04;;;;;;;11.37;5.70;;;;;;;;;;5043620;28;20245;-48
2022/06/13 05:50:32;;;;;;;10.13;5.50;;;;;;;;;;5051662;28;20215;-44
2022/06/13 05:52:59;;;;;;;14.30;5.50;;;;;;;;;;5050345;28;20186;-45
2022/06/13 05:55:27;;;;;;;18.70;5.77;;;;;;;;;;5049272;28;20211;-46
2022/06/13 05:57:55;;;;;;;16.30;5.73;;;;;;;;;;5037334;28;20206;-44
2022/06/13 06:00:25;;;;;;;10.17;5.50;;;;;;;;;;5048747;28;20223;-45
2022/06/13 06:02:52;;;;;;;9.67;4.80;;;;;;;;;;5049717;28;20195;-44
2022/06/13 06:05:20;;;;;;;10.47;5.07;;;;;;;;;;5043146;28;20286;-44
2022/06/13 06:07:47;;;;;;;8.97;5.20;;;;;;;;;;5041805;28;20226;-44
2022/06/13 06:10:19;;;;;;;10.20;5.10;;;13.90;99.90;;;;;;5056195;28;20703;-45
2022/06/13 06:12:46;;;;;;;12.83;4.50;;;14.00;99.90;;;;;;5035720;28;20240;-45
2022/06/13 06:15:15;;;;;;;12.33;4.27;;;14.00;99.90;;;;;;5050998;28;20195;-44
2022/06/13 06:17:41;;;;;;;12.63;4.30;;;14.10;99.90;;;;;;5042189;28;20879;-44
2022/06/13 06:20:12;;;;;;;9.70;4.30;;;14.10;99.90;;;;;;5045900;28;20219;-45
2022/06/13 06:22:39;;;;;;;8.90;4.27;;;14.20;99.90;;;;;;5049445;28;20186;-44
2022/06/13 06:25:06;;;;;;;13.80;4.20;;;14.30;99.90;;;;;;5051380;28;20659;-44
2022/06/13 06:27:33;;;;;;;8.50;4.13;;;14.40;99.90;;;;;;5031018;28;20225;-45
2022/06/13 06:30:01;;;;;;;8.47;4.40;;;14.50;99.90;;;;;;5053692;28;20217;-44
2022/06/13 06:32:29;;;;;;;8.63;4.13;;;14.40;99.90;;;;;;5047439;28;20207;-44
2022/06/13 06:34:56;;;;;;;9.87;3.70;;;14.50;99.90;;;;;;5042391;28;20211;-50
2022/06/13 06:37:22;;;;;;;10.87;3.97;;;14.40;99.90;;;;;;5050708;28;20214;-45
2022/06/13 06:39:49;;;;;;;10.10;3.93;;;14.50;99.90;;;;;;5043501;28;20218;-45
2022/06/13 06:42:16;;;;;;;9.03;4.40;;;14.50;99.90;;;;;;5050976;28;20373;-44
2022/06/13 06:44:43;;;;;;;7.37;3.23;;;14.70;99.90;;;;;;5035873;28;20233;-45
2022/06/13 06:47:10;;;;;;;6.03;3.47;;;14.80;99.90;;;;;;5054449;28;20215;-44
2022/06/13 06:49:38;;;;;;;9.13;3.23;;;14.90;99.90;;;;;;5035943;28;20710;-44
2022/06/13 06:52:06;;;;;;;10.20;4.07;;;15.00;99.90;;;;;;5055555;28;20202;-48
2022/06/13 07:00:06;;;;;;;11.67;4.00;;;14.90;99.90;;;;;;5041187;28;20229;-46
2022/06/13 07:02:32;;;;;;;10.50;3.43;;;14.90;99.90;;;;;;5053206;28;20249;-47
2022/06/13 07:05:02;;;;;;;8.13;3.30;;;14.90;99.90;;;;;;5053711;28;20685;-47
2022/06/13 07:07:30;;;;;;;8.30;3.03;;;14.80;99.90;;;;;;5043245;28;20301;-45
2022/06/13 07:09:57;;;;;;;11.37;4.33;;;14.80;99.90;;;;;;5049402;28;20313;-44
2022/06/13 07:12:24;;;;;;;8.90;2.53;;;14.70;99.90;;;;;;5042045;28;20297;-45
2022/06/13 07:14:51;;;;;;;11.53;3.50;;;14.50;99.90;;;;;;5043206;28;20203;-47
2022/06/13 07:17:18;;;;;;;11.23;3.50;;;14.40;99.90;;;;;;5050759;28;20218;-44
2022/06/13 07:19:45;;;;;;;7.90;2.83;;;14.30;99.90;;;;;;5044059;28;20223;-44
2022/06/13 07:22:17;;;;;;;6.30;2.70;;;14.10;99.90;;;;;;5043334;28;20195;-50
2022/06/13 07:24:44;;;;;;;5.87;2.63;;;13.90;99.90;;;;;;5054043;28;20252;-44
2022/06/13 07:27:14;;;;;;;4.53;2.23;;;;;;;;;;5040408;28;20265;-44
2022/06/13 07:29:40;;;;;;;5.40;2.10;;;13.70;99.90;;;;;;5056229;28;20194;-44
2022/06/13 07:32:12;;;;;;;5.40;1.50;;;13.50;99.90;;;;;;5039982;28;20210;-46
2022/06/13 07:34:39;;;;;;;3.43;1.47;;;13.40;99.90;;;;;;5051293;28;20619;-46
2022/06/13 07:37:09;;;;;;;7.60;1.50;;;13.20;99.90;;;;;;5047945;28;20889;-47
2022/06/13 07:39:37;;;;;;;4.83;1.50;;;13.10;99.90;;;;;;5045845;28;20207;-45
2022/06/13 07:42:05;;;;;;;4.40;1.17;;;12.90;99.90;;;;;;5044285;28;20603;-44
2022/06/13 07:44:37;;;;;;;1.87;1.20;;;12.70;99.90;;;;;;5047079;28;20281;-44
2022/06/13 07:47:05;;;;;;;1.70;0.93;;;12.60;99.90;;;;;;5039452;28;20624;-44
2022/06/13 07:49:32;;;;;;;4.20;1.20;;;12.60;99.90;;;;;;5049589;28;20278;-46
2022/06/13 07:51:59;;;;;;;2.80;1.23;;;12.60;99.90;;;;;;5054014;28;20660;-45
2022/06/13 07:54:26;;;;;;;2.23;1.00;;;12.70;99.90;;;;;;5040790;28;20210;-44
2022/06/13 07:56:53;;;;;;;4.90;1.80;;;12.70;99.90;;;;;;5056512;28;20205;-43
2022/06/13 07:59:30;;;;;;;1.87;1.10;;;12.80;99.90;;;;;;5042982;28;20407;-44
2022/06/13 08:01:58;;;;;;;9.13;1.60;;;12.80;99.90;;;;;;5042871;28;20206;-44
2022/06/13 08:04:25;;;;;;;2.03;1.00;;;12.80;99.90;;;;;;5048872;28;20885;-46
2022/06/13 08:06:52;;;;;;;1.73;1.13;;;12.80;99.90;;;;;;5045203;28;20207;-47
2022/06/13 08:09:19;;;;;;;4.03;1.17;;;12.90;99.90;;;;;;5054552;28;20215;-45
2022/06/13 08:11:47;;;;;;;3.03;1.00;;;13.00;99.90;;;;;;5044640;28;20219;-44
2022/06/13 08:14:16;;;;;;;1.20;0.90;;;12.90;99.90;;;;;;5053465;28;20199;-44
2022/06/13 08:16:45;;;;;;;1.97;1.10;;;12.90;99.90;;;;;;5040831;28;20211;-44
2022/06/13 08:19:11;;;;;;;1.20;0.97;;;12.80;99.90;;;;;;5056248;28;20207;-44
2022/06/13 08:21:39;;;;;;;0.93;0.80;;;12.90;99.90;;;;;;5055925;28;20234;-44
2022/06/13 08:24:06;;;;;;;2.43;0.97;;;12.90;99.90;;;;;;5053340;28;20199;-44
2022/06/13 08:26:33;;;;;;;1.07;0.97;;;12.80;99.90;;;;;;5053486;28;20671;-44
2022/06/13 08:29:00;;;;;;;2.57;1.00;;;12.70;99.90;;;;;;5049561;28;20286;-43
2022/06/13 08:31:29;;;;;;;2.70;1.03;;;12.70;99.90;;;;;;5047838;28;20255;-44
2022/06/13 08:33:56;;;;;;;1.60;0.90;;;12.60;99.90;;;;;;5032805;28;20203;-44
2022/06/13 08:36:23;;;;;;;3.30;1.40;;;12.60;99.90;;;;;;5049984;28;20208;-44
2022/06/13 08:38:50;;;;;;;4.97;2.23;;;12.70;99.90;;;;;;5043063;28;20238;-44
2022/06/13 08:41:25;;;;;;;6.30;1.73;;;12.70;99.90;;;;;;5043861;28;20223;-44
2022/06/13 08:44:38;;;;;;;1.67;1.03;;;12.70;99.90;;;;;;5035865;28;20225;-45
2022/06/13 08:47:16;;;;;;;4.10;1.20;;;12.60;99.90;;;;;;5006686;28;20214;-44
2022/06/13 08:49:45;;;;;;;3.27;1.33;;;12.70;99.90;;;;;;4997210;28;21003;-44
2022/06/13 08:52:25;;;;;;;3.27;1.40;;;12.90;99.90;;;;;;5032733;28;20210;-44
2022/06/13 08:54:56;;;;;;;2.83;1.07;;;12.90;99.90;;;;;;5042981;28;20229;-43
2022/06/13 08:57:26;;;;;;;2.40;1.00;;;12.80;99.90;;;;;;5048559;28;20215;-45
2022/06/13 08:59:56;;;;;;;1.40;1.00;;;12.80;99.90;;;;;;5048259;28;20222;-44
2022/06/13 09:02:28;;;;;;;0.97;0.90;;;13.00;99.90;;;;;;5044810;28;20218;-47
2022/06/13 09:05:00;;;;;;;1.03;0.70;;;13.00;99.90;;;;;;5041778;28;20207;-44
2022/06/13 09:07:32;;;;;;;2.37;1.00;;;13.00;99.90;;;;;;5044127;28;20206;-44
2022/06/13 09:10:03;;;;;;;3.47;0.83;;;13.10;99.90;;;;;;5042508;28;20607;-46
2022/06/13 09:12:38;;;;;;;1.07;0.80;;;13.30;99.90;;;;;;5048821;28;20203;-45
2022/06/13 09:15:09;;;;;;;1.77;0.80;;;13.40;99.90;;;;;;5043570;28;20202;-44
2022/06/13 09:17:49;;;;;;;2.23;0.80;;;13.60;99.90;;;;;;5042536;28;20211;-44
2022/06/13 09:20:22;;;;;;;1.10;1.00;;;13.70;99.90;;;;;;5040369;28;20225;-44
2022/06/13 09:22:55;;;;;;;1.70;0.90;;;13.80;99.90;;;;;;5043750;28;20195;-46
2022/06/13 09:25:33;;;;;;;2.13;0.87;;;14.00;99.90;;;;;;5048544;28;20676;-47
2022/06/13 09:28:04;;;;;;;4.20;0.77;;;14.00;99.90;;;;;;5045541;28;20226;-44
2022/06/13 09:30:35;;;;;;;0.90;0.73;;;14.00;99.90;;;;;;5048505;28;20219;-49
2022/06/13 09:33:09;;;;;;;1.17;0.60;;;14.00;99.90;;;;;;5051366;28;20203;-45
2022/06/13 09:35:43;;;;;;;1.67;1.10;;;14.10;99.90;;;;;;5042109;28;20703;-45
2022/06/13 09:38:15;;;;;;;2.23;0.80;;;14.10;99.90;;;;;;5044644;28;20681;-44
2022/06/13 09:40:50;;;;;;;0.77;0.73;;;14.10;99.90;;;;;;5054346;28;20289;-44
2022/06/13 09:43:28;;;;;;;1.37;0.70;;;14.40;99.90;;;;;;5034135;28;21103;-44
2022/06/13 09:46:05;;;;;;;2.20;0.80;;;14.40;99.90;;;;;;5045534;28;20687;-44
2022/06/13 09:48:46;;;;;;;1.17;1.00;;;14.40;99.90;;;;;;5046242;28;20214;-43
2022/06/13 09:51:23;;;;;;;1.10;1.03;;;14.50;99.90;;;;;;5037257;28;20226;-46
2022/06/13 09:54:08;;;;;;;1.33;0.87;;;14.60;99.90;;;;;;5052431;28;20298;-44
2022/06/13 09:56:42;;;;;;;1.47;0.40;;;14.70;99.90;;;;;;5052599;28;20194;-43
2022/06/13 09:59:21;;;;;;;0.97;0.50;;;14.70;99.90;;;;;;5048205;28;20203;-47
2022/06/13 10:01:57;;;;;;;0.93;0.70;;;14.90;99.90;;;;;;5049147;28;20210;-45
2022/06/13 10:04:34;;;;;;;3.07;0.77;;;15.10;99.90;;;;;;5049398;28;20194;-44
2022/06/13 10:07:08;;;;;;;1.20;0.70;;;15.20;99.90;;;;;;5042686;28;20206;-43
2022/06/13 10:09:46;;;;;;;3.07;0.60;;;15.20;99.90;;;;;;5051504;28;20862;-44
2022/06/13 10:12:26;;;;;;;1.43;0.53;;;15.20;99.90;;;;;;5050396;28;20203;-45
2022/06/13 10:15:06;;;;;;;2.10;0.70;;;15.30;99.90;;;;;;5049808;28;20206;-43
2022/06/13 10:17:49;;;;;;;2.53;0.67;;;15.30;99.90;;;;;;5037876;28;20206;-45
2022/06/13 10:20:27;;;;;;;0.50;0.50;;;15.40;99.90;;;;;;5048211;28;20640;-46
2022/06/13 10:22:59;;;;;;;4.17;0.60;;;15.50;99.90;;;;;;5039994;28;20202;-46
2022/06/13 10:25:40;;;;;;;1.90;0.40;;;15.50;99.90;;;;;;5054162;28;20194;-43
2022/06/13 10:28:20;;;;;;;0.70;0.40;;;15.60;99.90;;;;;;5056088;28;20214;-46
2022/06/13 10:30:57;;;;;;;0.50;0.50;;;15.70;99.90;;;;;;5042746;28;20221;-44
2022/06/13 10:33:40;;;;;;;0.90;0.60;;;15.80;99.90;;;;;;5043400;28;20206;-45
2022/06/13 10:36:19;;;;;;;0.60;0.40;;;16.00;99.90;;;;;;5049088;28;20550;-44
2022/06/13 10:38:56;;;;;;;0.50;0.50;;;16.20;99.90;;;;;;5046711;28;20206;-43
2022/06/13 10:41:25;;;;;;;2.60;0.57;;;16.30;99.90;;;;;;5046521;28;20600;-46
2022/06/13 10:43:53;;;;;;;0.50;0.40;;;16.40;99.90;;;;;;5046247;28;20252;-45
2022/06/13 10:46:21;;;;;;;1.13;0.50;;;16.50;99.90;;;;;;5044104;28;20245;-45
2022/06/13 10:48:53;;;;;;;1.27;0.50;;;16.50;99.90;;;;;;5037949;28;20233;-46
2022/06/13 10:51:22;;;;;;;0.80;0.30;;;16.60;99.90;;;;;;5051587;28;20392;-46
2022/06/13 10:53:53;;;;;;;0.50;0.47;;;16.60;99.90;;;;;;5035965;28;20213;-45
2022/06/13 10:56:23;;;;;;;2.23;0.33;;;16.60;99.90;;;;;;5045196;28;21131;-45
2022/06/13 10:58:52;;;;;;;2.93;0.60;;;16.60;99.90;;;;;;5046416;28;20195;-43
2022/06/13 11:01:21;;;;;;;1.23;0.67;;;16.70;99.90;;;;;;5045186;28;20281;-44
2022/06/13 11:04:01;;;;;;;1.80;0.57;;;16.70;99.90;;;;;;5042098;28;20290;-49
2022/06/13 11:06:35;;;;;;;1.57;0.40;;;16.60;99.90;;;;;;5041330;28;20294;-43
2022/06/13 11:09:03;;;;;;;4.63;0.60;;;16.60;99.90;;;;;;5044417;28;20715;-44
2022/06/13 11:11:33;;;;;;;3.10;0.53;;;16.60;99.90;;;;;;5044700;28;20277;-49
2022/06/13 11:14:01;;;;;;;1.80;0.60;;;16.60;99.90;;;;;;5044124;28;20917;-43
2022/06/13 11:25:03;;;;;;;1.77;0.37;;;17.00;99.90;;;;;;5033342;28;20546;-47
2022/06/13 11:27:41;;;;;;;1.07;0.30;;;16.90;99.90;;;;;;5057032;28;20213;-45
2022/06/13 11:30:38;;;;;;;4.40;0.50;;;16.90;99.90;;;;;;5050848;28;20797;-44
2022/06/13 11:33:08;;;;;;;1.27;0.50;;;16.80;99.90;;;;;;5047910;28;20196;-44
2022/06/13 11:35:38;;;;;;;1.23;0.40;;;16.60;99.90;;;;;;5045645;28;20249;-48
2022/06/13 11:38:19;;;;;;;2.43;0.70;;;16.70;99.90;;;;;;5041430;28;20209;-45
2022/06/13 11:40:56;;;;;;;1.10;0.40;;;16.90;99.90;;;;;;5045130;28;20667;-44
2022/06/13 11:43:31;;;;;;;0.73;0.37;;;17.00;99.90;;;;;;5055952;28;20207;-47
2022/06/13 11:46:01;;;;;;;1.80;0.40;;;17.00;99.90;;;;;;5052098;28;20210;-46
2022/06/13 11:48:29;;;;;;;1.43;0.60;;;17.00;99.90;;;;;;5060236;28;20697;-43
2022/06/13 11:50:57;;;;;;;4.87;0.83;;;17.00;99.90;;;;;;5047921;28;20227;-44
2022/06/13 11:53:38;;;;;;;2.90;0.57;;;17.10;99.90;;;;;;5045643;28;20550;-43
2022/06/13 11:56:09;;;;;;;0.70;0.50;;;17.30;99.90;;;;;;5050200;28;20186;-46
2022/06/13 11:58:41;;;;;;;1.80;0.60;;;17.40;99.90;;;;;;5045352;28;20207;-46
2022/06/13 12:01:24;;;;;;;1.23;0.60;;;17.30;99.90;;;;;;5050812;28;20216;-44
2022/06/13 12:04:00;;;;;;;0.87;0.60;;;17.50;99.90;;;;;;5054328;28;20199;-43
2022/06/13 12:06:32;;;;;;;3.53;0.80;;;17.80;99.90;;;;;;5049823;28;20592;-45
2022/06/13 12:09:13;;;;;;;2.80;0.60;;;17.80;99.90;;;;;;5046317;28;20214;-44
2022/06/13 12:11:45;;;;;;;3.43;0.50;;;17.80;99.90;;;;;;5058545;28;20218;-45
2022/06/13 12:14:37;;;;;;;3.00;0.53;;;18.00;99.90;;;;;;5048148;28;20248;-43
2022/06/13 12:17:10;;;;;;;2.37;0.50;;;18.00;99.90;;;;;;5044676;28;20198;-44
2022/06/13 12:19:45;;;;;;;2.30;0.50;;;17.90;99.90;;;;;;5056910;28;20233;-44
2022/06/13 12:22:18;;;;;;;2.33;0.50;;;17.80;99.90;;;;;;5042832;28;20321;-44
2022/06/13 12:24:58;;;;;;;1.10;0.40;;;17.80;99.90;;;;;;5049038;28;20203;-44
2022/06/13 12:27:36;;;;;;;0.70;0.70;;;17.80;98.50;;;;;;5053179;28;20198;-46
2022/06/13 12:30:47;;;;;;;1.67;0.50;;;17.70;99.70;;;;;;5043163;28;20223;-44
2022/06/13 12:33:27;;;;;;;3.37;0.90;;;17.80;99.90;;;;;;5050365;28;20213;-44
2022/06/13 12:36:04;;;;;;;2.03;0.67;;;17.90;99.90;;;;;;5043451;28;20264;-43
2022/06/13 12:38:45;;;;;;;2.20;0.60;;;17.90;99.90;;;;;;5053314;28;20208;-44
2022/06/13 12:41:24;;;;;;;2.53;0.60;;;17.90;99.90;;;;;;5047549;28;20218;-44
2022/06/13 12:44:09;;;;;;;1.13;0.40;;;17.90;99.90;;;;;;5042998;28;20213;-46
2022/06/13 12:46:51;;;;;;;1.17;0.50;;;18.20;99.90;;;;;;5054083;28;20198;-47
2022/06/13 12:49:40;;;;;;;1.37;0.60;;;18.40;99.90;;;;;;5046955;28;20215;-47
2022/06/13 12:52:17;;;;;;;2.93;0.60;;;18.40;99.70;;;;;;5049429;28;20187;-44
2022/06/13 12:54:53;;;;;;;2.27;0.73;;;18.50;99.30;;;;;;5042628;28;20214;-46
2022/06/13 12:57:40;;;;;;;1.53;0.60;;;18.60;99.20;;;;;;5048880;28;20857;-44
2022/06/13 13:00:18;;;;;;;3.37;0.97;;;18.80;99.40;;;;;;5042356;28;20223;-45
2022/06/13 13:03:11;;;;;;;3.70;1.00;;;19.20;99.00;;;;;;5049129;28;20203;-45
2022/06/13 13:05:47;;;;;;;3.30;0.67;;;19.60;98.70;;;;;;5056660;28;20199;-43
2022/06/13 13:08:26;;;;;;;4.13;0.63;;;19.80;98.40;;;;;;5042481;28;20232;-44
2022/06/13 13:11:09;;;;;;;1.90;0.70;;;19.70;97.20;;;;;;5035426;28;20226;-44
2022/06/13 13:13:50;;;;;;;4.13;1.23;;;19.80;96.90;;;;;;5050770;28;20209;-45
2022/06/13 13:16:28;;;;;;;1.40;0.40;;;20.20;96.40;;;;;;5043070;28;20672;-44
2022/06/13 13:19:10;;;;;;;1.10;0.60;;;20.20;95.90;;;;;;5055588;28;20195;-44
2022/06/13 13:21:43;;;;;;;2.37;0.67;;;20.60;95.90;;;;;;5048909;28;20280;-45
2022/06/13 13:24:25;;;;;;;1.43;0.90;;;20.50;92.70;;;;;;5042057;28;20294;-44
2022/06/13 13:26:59;;;;;;;1.03;0.63;;;19.60;92.60;;;;;;5048746;28;20672;-44
2022/06/13 13:29:35;;;;;;;1.37;0.50;;;19.00;94.30;;;;;;5042359;28;20868;-43
2022/06/13 13:32:09;;;;;;;1.80;0.70;;;18.80;95.20;;;;;;5045971;28;20213;-44
2022/06/13 13:34:47;;;;;;;2.50;0.57;;;19.00;95.50;;;;;;5043903;28;20195;-44
2022/06/13 13:37:21;;;;;;;2.73;0.90;;;19.40;95.00;;;;;;5051449;28;20596;-44
2022/06/13 13:39:58;;;;;;;3.23;0.50;;;19.60;93.60;;;;;;5047987;28;20215;-44
2022/06/13 13:42:34;;;;;;;1.10;0.50;;;19.70;95.00;;;;;;5039071;28;20352;-45
2022/06/13 13:45:16;;;;;;;2.60;0.67;;;20.30;93.80;;;;;;5051215;28;20226;-43
2022/06/13 13:47:49;;;;;;;1.13;0.30;;;20.50;91.90;;;;;;5035024;28;20202;-43
2022/06/13 13:50:21;;;;;;;1.93;0.50;;;20.70;91.70;;;;;;5045224;28;20230;-43
2022/06/13 13:52:52;;;;;;;1.80;0.53;;;20.80;89.40;;;;;;5046960;28;20191;-46
2022/06/13 13:55:24;;;;;;;2.53;0.60;;;20.70;91.60;;;;;;5045156;28;20214;-46
2022/06/13 13:57:55;;;;;;;1.40;0.50;;;21.00;90.70;;;;;;5046247;28;20231;-44
2022/06/13 14:00:34;;;;;;;1.97;0.40;;;21.00;90.30;;;;;;5047563;28;20219;-44
2022/06/13 14:03:10;;;;;;;2.83;0.67;;;21.00;88.40;;;;;;5046869;28;20201;-44